Time;durP1;ratioP1;P1;durP2;ratioP2;P2;SDS_P1;SDS_P2;PMS_P1;PMS_P2;Temp;Humidity;BMP_temperature;BMP_pressure;BME280_temperature;BME280_humidity;BME280_pressure;Samples;Min_cycle;Max_cycle;Signal;HPM_P1;HPM_P2
2022/11/03 00:01:59;;;;;;;48.33;31.33;;;16.80;87.00;;;;;;5034345;28;20038;-71
2022/11/03 00:04:24;;;;;;;48.75;31.02;;;16.80;87.00;;;;;;5032694;28;20392;-71
2022/11/03 00:06:51;;;;;;;45.47;30.38;;;16.80;87.00;;;;;;5034216;28;20025;-71
2022/11/03 00:09:17;;;;;;;44.13;30.38;;;16.80;87.00;;;;;;5032956;28;20040;-71
2022/11/03 00:11:44;;;;;;;46.65;30.58;;;16.80;87.00;;;;;;5032861;28;20438;-71
2022/11/03 00:14:09;;;;;;;52.40;31.13;;;16.80;87.00;;;;;;5025279;28;20025;-71
2022/11/03 00:16:35;;;;;;;48.40;32.25;;;16.80;87.00;;;;;;5033067;28;20039;-71
2022/11/03 00:19:01;;;;;;;43.60;30.35;;;16.80;87.00;;;;;;5032541;28;20026;-71
2022/11/03 00:21:27;;;;;;;45.97;30.17;;;16.80;87.00;;;;;;5032622;28;20096;-71
2022/11/03 00:23:53;;;;;;;45.70;32.03;;;16.80;87.00;;;;;;5032929;28;20017;-71
2022/11/03 00:26:20;;;;;;;45.35;30.73;;;16.80;87.00;;;;;;5031547;28;20033;-71
2022/11/03 00:28:47;;;;;;;38.42;30.45;;;16.80;87.00;;;;;;5032695;28;20499;-71
2022/11/03 00:31:20;;;;;;;44.75;29.85;;;16.80;87.00;;;;;;5032702;28;20026;-71
2022/11/03 00:33:46;;;;;;;47.55;30.83;;;16.80;87.00;;;;;;5032286;28;20029;-71
2022/11/03 00:36:13;;;;;;;42.20;30.05;;;16.80;87.00;;;;;;5032284;28;20030;-71
2022/11/03 00:38:39;;;;;;;45.40;31.10;;;16.80;87.00;;;;;;5016209;28;20025;-71
2022/11/03 00:41:05;;;;;;;44.28;29.45;;;16.80;87.00;;;;;;5032232;28;20059;-71
2022/11/03 00:43:32;;;;;;;52.70;30.85;;;16.80;87.00;;;;;;5032524;28;20041;-71
2022/11/03 00:45:58;;;;;;;41.95;29.85;;;16.80;87.00;;;;;;5019510;28;20025;-71
2022/11/03 00:48:29;;;;;;;43.88;29.65;;;16.80;87.00;;;;;;5032069;28;20018;-71
2022/11/03 00:51:02;;;;;;;38.70;28.92;;;16.80;87.00;;;;;;5033424;28;20056;-71
2022/11/03 00:53:28;;;;;;;41.78;29.80;;;16.80;87.00;;;;;;5032035;28;20056;-71
2022/11/03 00:55:53;;;;;;;40.28;29.38;;;16.80;87.00;;;;;;5032073;28;20061;-71
2022/11/03 00:58:19;;;;;;;37.28;27.70;;;16.80;87.00;;;;;;5032045;28;20025;-71
2022/11/03 01:00:44;;;;;;;41.58;29.02;;;16.80;87.00;;;;;;5031934;28;20562;-71
2022/11/03 01:03:10;;;;;;;40.75;29.88;;;16.80;87.00;;;;;;5032895;28;20526;-71
2022/11/03 01:08:24;;;;;;;40.47;28.75;;;16.80;87.00;;;;;;5033053;28;20060;-71
2022/11/03 01:13:33;;;;;;;42.30;28.80;;;16.80;87.00;;;;;;5040249;28;20032;-71
2022/11/03 01:15:59;;;;;;;37.55;28.88;;;16.80;87.00;;;;;;5051546;28;20033;-71
2022/11/03 01:18:24;;;;;;;32.60;26.33;;;16.80;87.00;;;;;;5052652;28;20025;-71
2022/11/03 01:20:55;;;;;;;36.00;26.80;;;16.80;87.00;;;;;;5051694;28;20033;-71
2022/11/03 01:23:21;;;;;;;39.50;27.75;;;16.80;87.00;;;;;;5051280;28;20573;-71
2022/11/03 01:25:47;;;;;;;43.10;27.58;;;16.80;87.00;;;;;;5051634;28;20025;-71
2022/11/03 01:28:13;;;;;;;39.05;27.67;;;16.80;87.00;;;;;;5052430;28;20395;-71
2022/11/03 01:30:38;;;;;;;36.85;27.70;;;16.80;87.00;;;;;;5052485;28;20035;-71
2022/11/03 01:33:04;;;;;;;39.28;27.80;;;16.80;87.00;;;;;;5052633;28;20025;-71
2022/11/03 01:35:29;;;;;;;37.20;27.20;;;16.80;87.10;;;;;;5052412;28;20032;-71
2022/11/03 01:37:55;;;;;;;37.17;26.60;;;16.80;87.10;;;;;;5052212;28;20028;-71
2022/11/03 01:40:21;;;;;;;39.17;26.73;;;16.80;87.20;;;;;;5051241;28;20108;-71
2022/11/03 01:42:47;;;;;;;37.45;26.13;;;16.80;87.10;;;;;;5051254;28;20064;-71
2022/11/03 01:45:13;;;;;;;37.42;26.98;;;16.80;87.20;;;;;;5042218;28;20065;-71
2022/11/03 01:47:38;;;;;;;34.38;26.73;;;16.80;87.10;;;;;;5032469;28;20104;-71
2022/11/03 01:50:15;;;;;;;31.75;25.00;;;16.80;87.20;;;;;;5031297;28;20102;-71
2022/11/03 01:52:51;;;;;;;34.83;26.83;;;16.80;87.20;;;;;;5031329;28;20017;-71
2022/11/03 01:55:46;;;;;;;36.88;25.50;;;16.80;87.20;;;;;;5031128;28;20495;-71
2022/11/03 01:58:18;;;;;;;36.80;26.15;;;16.80;87.30;;;;;;5026459;28;20049;-71
2022/11/03 02:00:46;;;;;;;31.90;25.35;;;16.80;87.40;;;;;;5032019;28;20479;-71
2022/11/03 02:03:11;;;;;;;37.65;25.40;;;16.80;87.30;;;;;;5031245;28;20076;-71
2022/11/03 02:05:37;;;;;;;33.25;24.92;;;16.80;87.40;;;;;;5031224;28;20033;-71
2022/11/03 02:08:08;;;;;;;37.95;26.08;;;16.80;87.30;;;;;;5032275;28;20026;-71
2022/11/03 02:10:34;;;;;;;32.72;26.02;;;16.80;87.30;;;;;;5031287;28;20017;-70
2022/11/03 02:13:00;;;;;;;31.83;24.13;;;16.80;87.40;;;;;;5028541;28;20053;-71
2022/11/03 02:15:26;;;;;;;31.73;24.50;;;16.80;87.30;;;;;;5034628;28;20404;-71
2022/11/03 02:17:52;;;;;;;33.38;24.67;;;16.80;87.50;;;;;;5034836;28;20475;-71
2022/11/03 02:20:28;;;;;;;36.67;25.52;;;16.80;87.40;;;;;;5034741;28;20029;-71
2022/11/03 02:23:05;;;;;;;31.13;24.20;;;16.80;87.40;;;;;;5034621;28;20025;-71
2022/11/03 02:25:47;;;;;;;33.40;24.52;;;16.80;87.40;;;;;;5052455;28;20036;-71
2022/11/03 02:28:18;;;;;;;31.40;24.17;;;16.80;87.40;;;;;;5018301;28;20021;-71
2022/11/03 02:30:49;;;;;;;29.38;24.33;;;16.80;87.40;;;;;;5051171;28;20032;-71
2022/11/03 02:33:20;;;;;;;33.80;24.52;;;16.80;87.50;;;;;;5052252;28;20024;-71
2022/11/03 02:35:52;;;;;;;32.35;24.65;;;16.80;87.50;;;;;;5051229;28;20046;-71
2022/11/03 02:38:18;;;;;;;31.63;24.25;;;16.80;87.30;;;;;;5035184;28;20021;-71
2022/11/03 02:40:49;;;;;;;34.40;23.60;;;16.80;87.50;;;;;;5034463;28;20025;-71
2022/11/03 02:43:15;;;;;;;31.73;24.50;;;16.80;87.40;;;;;;5034535;28;20469;-71
2022/11/03 02:45:41;;;;;;;34.15;24.40;;;16.80;87.40;;;;;;5020722;28;20138;-71
2022/11/03 02:48:06;;;;;;;29.15;23.30;;;16.80;87.40;;;;;;5039773;28;20035;-71
2022/11/03 02:50:32;;;;;;;30.08;22.73;;;16.80;87.50;;;;;;5018719;28;20898;-71
2022/11/03 02:52:58;;;;;;;27.95;23.17;;;16.80;87.40;;;;;;5018418;28;20041;-71
2022/11/03 02:55:39;;;;;;;29.27;23.42;;;16.80;87.50;;;;;;5035773;28;20038;-71
2022/11/03 02:58:27;;;;;;;29.95;23.10;;;16.80;87.50;;;;;;5018642;28;20116;-71
2022/11/03 03:00:55;;;;;;;28.95;23.75;;;16.80;87.40;;;;;;5019512;28;20022;-71
2022/11/03 03:03:33;;;;;;;26.88;22.10;;;16.80;87.50;;;;;;5018345;28;20022;-71
2022/11/03 03:06:03;;;;;;;29.58;22.08;;;16.80;87.50;;;;;;5018380;28;20017;-71
2022/11/03 03:08:29;;;;;;;26.50;22.15;;;16.80;87.60;;;;;;5018289;28;20029;-71
2022/11/03 03:10:55;;;;;;;28.30;22.92;;;16.80;87.50;;;;;;5018198;28;20029;-71
2022/11/03 03:13:21;;;;;;;30.08;21.67;;;16.80;87.50;;;;;;5023534;28;20025;-71
2022/11/03 03:15:51;;;;;;;28.50;22.83;;;16.80;87.40;;;;;;5054535;28;20025;-71
2022/11/03 03:18:30;;;;;;;37.05;23.00;;;16.80;87.40;;;;;;5054073;28;20035;-71
2022/11/03 03:21:32;;;;;;;27.20;22.55;;;16.80;87.50;;;;;;5054245;28;20021;-71
2022/11/03 03:24:07;;;;;;;29.63;22.30;;;16.80;87.40;;;;;;5036834;28;20029;-71
2022/11/03 03:26:40;;;;;;;24.80;20.98;;;16.80;87.50;;;;;;5020437;28;20036;-71
2022/11/03 03:29:08;;;;;;;;;;;16.80;87.50;;;;;;5021258;28;20087;-71
2022/11/03 03:31:35;;;;;;;29.15;21.92;;;16.80;87.50;;;;;;5036303;28;19925;-71
2022/11/03 03:34:01;;;;;;;26.05;21.30;;;16.80;87.50;;;;;;5019964;28;20028;-71
2022/11/03 03:36:27;;;;;;;26.85;21.40;;;16.80;87.50;;;;;;5020042;28;20036;-71
2022/11/03 03:38:55;;;;;;;25.23;20.80;;;16.80;87.60;;;;;;5020101;28;20040;-71
2022/11/03 03:41:21;;;;;;;24.35;20.10;;;16.80;87.50;;;;;;5019668;28;20025;-71
2022/11/03 03:43:51;;;;;;;29.35;21.42;;;16.80;87.50;;;;;;5036275;28;20546;-71
2022/11/03 03:46:16;;;;;;;26.88;20.58;;;16.80;87.50;;;;;;5036162;28;20029;-71
2022/11/03 03:48:42;;;;;;;27.67;20.65;;;16.80;87.50;;;;;;5019566;28;20379;-71
2022/11/03 03:51:08;;;;;;;25.98;20.85;;;16.70;87.40;;;;;;5019972;28;20045;-71
2022/11/03 03:53:33;;;;;;;26.35;19.83;;;16.80;87.40;;;;;;5019588;28;20029;-71
2022/11/03 03:55:59;;;;;;;28.67;20.33;;;16.80;87.50;;;;;;5035420;28;20061;-71
2022/11/03 03:58:25;;;;;;;29.98;21.15;;;16.80;87.40;;;;;;5017057;28;20033;-71
2022/11/03 04:00:50;;;;;;;25.70;20.95;;;16.80;87.50;;;;;;5034710;28;20025;-71
2022/11/03 04:03:21;;;;;;;26.63;20.75;;;16.70;87.50;;;;;;5033798;28;20417;-71
2022/11/03 04:05:47;;;;;;;23.58;20.08;;;16.80;87.50;;;;;;5035100;28;20053;-71
2022/11/03 04:08:13;;;;;;;25.05;19.90;;;16.80;87.50;;;;;;5017013;28;20483;-71
2022/11/03 04:10:38;;;;;;;25.88;20.08;;;16.80;87.50;;;;;;5033097;28;20028;-71
2022/11/03 04:23:46;;;;;;;23.70;18.65;;;16.80;87.50;;;;;;5034487;28;20036;-71
2022/11/03 04:26:14;;;;;;;23.48;19.20;;;16.80;87.50;;;;;;5034254;28;20029;-71
2022/11/03 04:28:41;;;;;;;24.27;18.13;;;16.80;87.50;;;;;;5033081;28;20025;-71
2022/11/03 04:31:13;;;;;;;22.95;18.02;;;16.80;87.50;;;;;;5033320;28;20048;-71
2022/11/03 04:33:40;;;;;;;;;;;16.80;87.60;;;;;;5033367;28;20061;-71
2022/11/03 04:36:22;;;;;;;25.33;18.90;;;16.80;87.60;;;;;;5049582;28;19911;-71
2022/11/03 04:38:49;;;;;;;25.45;18.98;;;16.80;87.60;;;;;;5032934;28;20055;-71
2022/11/03 04:41:27;;;;;;;26.38;18.60;;;16.80;87.60;;;;;;5033122;28;20384;-71
2022/11/03 04:43:52;;;;;;;22.25;18.38;;;16.80;87.50;;;;;;5034034;28;20021;-71
2022/11/03 04:46:28;;;;;;;23.98;18.48;;;16.80;87.50;;;;;;5032743;28;20400;-71
2022/11/03 04:48:54;;;;;;;22.42;17.67;;;16.80;87.60;;;;;;5032927;28;20026;-71
2022/11/03 04:51:22;;;;;;;19.95;17.67;;;16.80;87.50;;;;;;5032926;28;20531;-71
2022/11/03 04:54:18;;;;;;;24.23;17.75;;;16.80;87.50;;;;;;5032502;28;20104;-71
2022/11/03 04:56:43;;;;;;;25.60;17.70;;;16.80;87.50;;;;;;5029796;28;20045;-71
2022/11/03 04:59:13;;;;;;;24.15;17.70;;;16.80;87.40;;;;;;5016201;28;20052;-71
2022/11/03 05:01:39;;;;;;;24.67;17.35;;;16.80;87.50;;;;;;5033815;28;20028;-71
2022/11/03 05:04:11;;;;;;;23.63;17.25;;;16.80;87.50;;;;;;5015791;28;20029;-71
2022/11/03 05:06:36;;;;;;;24.00;16.67;;;16.80;87.60;;;;;;5033177;28;20096;-71
2022/11/03 05:09:10;;;;;;;20.73;17.13;;;16.80;87.60;;;;;;5032315;28;20171;-71
2022/11/03 05:11:40;;;;;;;17.45;15.63;;;16.80;87.50;;;;;;5032832;28;20357;-71
2022/11/03 05:14:13;;;;;;;19.92;15.90;;;16.80;87.50;;;;;;5031800;28;20033;-71
2022/11/03 05:16:39;;;;;;;20.42;15.90;;;16.80;87.50;;;;;;5032280;28;20402;-71
2022/11/03 05:19:10;;;;;;;21.63;15.18;;;16.80;87.50;;;;;;5015742;28;20116;-71
2022/11/03 05:21:36;;;;;;;21.35;15.65;;;16.80;87.50;;;;;;5016056;28;20026;-71
2022/11/03 05:24:02;;;;;;;17.90;15.57;;;16.80;87.40;;;;;;5032098;28;20200;-71
2022/11/03 05:26:34;;;;;;;18.20;15.45;;;16.80;87.50;;;;;;5032106;28;20063;-71
2022/11/03 05:29:13;;;;;;;17.03;15.30;;;16.80;87.50;;;;;;5033363;28;20108;-71
2022/11/03 05:31:39;;;;;;;18.38;15.00;;;16.80;87.60;;;;;;5031927;28;20397;-71
2022/11/03 05:34:47;;;;;;;21.65;16.27;;;16.80;87.50;;;;;;5015580;28;20079;-71
2022/11/03 05:37:25;;;;;;;21.13;15.77;;;16.80;87.50;;;;;;5030825;28;20527;-71
2022/11/03 05:39:51;;;;;;;19.50;15.30;;;16.80;87.60;;;;;;5014809;28;20112;-71
2022/11/03 05:42:33;;;;;;;17.85;15.15;;;16.70;87.50;;;;;;5014626;28;20061;-71
2022/11/03 05:44:59;;;;;;;18.58;15.30;;;16.80;87.60;;;;;;5013908;28;20041;-71
2022/11/03 05:47:27;;;;;;;18.00;15.45;;;16.80;87.60;;;;;;5030810;28;20033;-71
2022/11/03 05:50:00;;;;;;;18.23;15.32;;;16.80;87.60;;;;;;5014244;28;20757;-71
2022/11/03 05:52:26;;;;;;;19.48;14.40;;;16.80;87.70;;;;;;4998268;28;20511;-71
2022/11/03 05:54:53;;;;;;;26.10;15.32;;;16.80;87.70;;;;;;4997899;28;20030;-71
2022/11/03 05:57:18;;;;;;;18.40;15.23;;;16.80;87.60;;;;;;4997606;28;20037;-71
2022/11/03 05:59:45;;;;;;;18.15;14.48;;;16.80;87.70;;;;;;5013953;28;20026;-71
2022/11/03 06:02:20;;;;;;;18.50;15.02;;;16.80;87.60;;;;;;5013851;28;20396;-70
2022/11/03 06:04:46;;;;;;;19.52;14.73;;;16.80;87.70;;;;;;5013979;28;20087;-71
2022/11/03 06:07:19;;;;;;;17.40;15.07;;;16.80;88.70;;;;;;4981614;28;20120;-70
2022/11/03 06:09:45;;;;;;;17.27;14.65;;;16.80;87.70;;;;;;4998342;28;20021;-70
2022/11/03 06:12:13;;;;;;;22.42;15.38;;;16.80;87.70;;;;;;5013462;28;20191;-70
2022/11/03 06:14:38;;;;;;;18.02;14.40;;;16.80;87.70;;;;;;5031376;28;20051;-70
2022/11/03 06:17:06;;;;;;;15.25;13.68;;;16.70;87.70;;;;;;5051397;28;20037;-70
2022/11/03 06:19:44;;;;;;;15.50;13.55;;;16.80;87.70;;;;;;5051201;28;20096;-70
2022/11/03 06:22:23;;;;;;;17.25;14.20;;;16.80;87.70;;;;;;5050959;28;20037;-70
2022/11/03 06:24:49;;;;;;;17.05;13.73;;;16.80;87.70;;;;;;5055057;28;20399;-70
2022/11/03 06:27:21;;;;;;;18.13;14.48;;;16.80;87.70;;;;;;5022435;28;20021;-71
2022/11/03 06:29:52;;;;;;;19.67;14.83;;;16.80;87.70;;;;;;5055372;28;20036;-70
2022/11/03 06:32:17;;;;;;;20.73;14.48;;;16.80;87.70;;;;;;5055258;28;20479;-70
2022/11/03 06:34:48;;;;;;;18.63;13.80;;;16.80;87.60;;;;;;5038177;28;20033;-70
2022/11/03 06:37:25;;;;;;;16.58;13.40;;;16.80;87.70;;;;;;5038988;28;20025;-70
2022/11/03 06:39:52;;;;;;;15.40;13.75;;;16.80;87.70;;;;;;5039161;28;20028;-70
2022/11/03 06:42:20;;;;;;;15.57;13.98;;;16.80;87.70;;;;;;5038595;28;20029;-70
2022/11/03 06:44:47;;;;;;;15.85;13.57;;;16.80;87.80;;;;;;5049780;28;20116;-70
2022/11/03 06:47:24;;;;;;;16.50;13.05;;;16.70;87.70;;;;;;5035022;28;20093;-70
2022/11/03 06:49:53;;;;;;;16.15;13.70;;;16.80;87.70;;;;;;5034421;28;20032;-70
2022/11/03 06:52:36;;;;;;;14.25;12.75;;;16.70;87.80;;;;;;5034770;28;20113;-70
2022/11/03 06:55:11;;;;;;;14.68;13.15;;;16.80;87.80;;;;;;5035522;28;20036;-70
2022/11/03 06:57:41;;;;;;;16.38;13.35;;;16.80;87.80;;;;;;5035796;28;20029;-71
2022/11/03 07:00:24;;;;;;;15.00;12.57;;;16.80;87.80;;;;;;5034629;28;20021;-70
2022/11/03 07:02:52;;;;;;;15.77;13.65;;;16.80;87.80;;;;;;5018182;28;20018;-70
2022/11/03 07:05:23;;;;;;;13.82;12.45;;;16.80;87.90;;;;;;5035678;28;20096;-70
2022/11/03 07:07:51;;;;;;;14.70;13.27;;;16.80;87.90;;;;;;5018285;28;20017;-70
2022/11/03 07:10:16;;;;;;;24.33;12.98;;;16.80;87.90;;;;;;5018376;28;20021;-70
2022/11/03 07:12:42;;;;;;;14.95;12.95;;;16.80;87.90;;;;;;5035810;28;20021;-71
2022/11/03 07:15:36;;;;;;;14.80;13.18;;;16.80;87.90;;;;;;5054264;28;20035;-71
2022/11/03 07:18:01;;;;;;;14.95;13.35;;;16.80;87.90;;;;;;5039317;28;20029;-70
2022/11/03 07:20:27;;;;;;;14.38;12.80;;;16.80;87.90;;;;;;5037695;28;20025;-70
2022/11/03 07:22:53;;;;;;;11.48;10.27;;;16.80;88.00;;;;;;5054312;28;20025;-70
2022/11/03 07:25:20;;;;;;;13.95;10.10;;;16.80;87.60;;;;;;5054201;28;20053;-70
2022/11/03 07:27:51;;;;;;;11.98;10.55;;;16.80;87.50;;;;;;5055744;28;20087;-70
2022/11/03 07:30:28;;;;;;;11.40;10.18;;;16.80;87.30;;;;;;5054486;28;20045;-71
2022/11/03 07:32:59;;;;;;;12.35;9.73;;;16.80;87.10;;;;;;5037949;28;20055;-70
2022/11/03 07:35:27;;;;;;;9.57;8.50;;;16.70;87.00;;;;;;5037350;28;20021;-70
2022/11/03 07:37:53;;;;;;;19.92;8.98;;;16.70;86.70;;;;;;5055276;28;20100;-70
2022/11/03 07:40:22;;;;;;;10.20;7.75;;;16.70;86.70;;;;;;5037687;28;20415;-70
2022/11/03 07:42:48;;;;;;;11.18;7.97;;;16.70;86.60;;;;;;5054955;28;20024;-71
2022/11/03 07:45:35;;;;;;;9.57;8.57;;;16.70;86.70;;;;;;5041999;28;20064;-72
2022/11/03 07:48:23;;;;;;;11.18;8.07;;;16.70;86.60;;;;;;5031903;28;20036;-71
2022/11/03 07:50:49;;;;;;;9.80;8.00;;;16.70;86.60;;;;;;5033373;28;20029;-71
2022/11/03 07:53:20;;;;;;;11.57;8.40;;;16.70;87.50;;;;;;5032186;28;20021;-71
2022/11/03 07:55:46;;;;;;;12.80;7.57;;;16.70;86.50;;;;;;5032121;28;20048;-71
2022/11/03 07:58:35;;;;;;;12.77;8.05;;;16.70;86.40;;;;;;5032541;28;20359;-72
2022/11/03 08:01:02;;;;;;;12.63;7.78;;;16.70;86.40;;;;;;5043887;28;20048;-71
2022/11/03 08:03:38;;;;;;;20.45;8.05;;;16.70;86.40;;;;;;5038125;28;20017;-71
2022/11/03 08:06:04;;;;;;;14.48;7.70;;;16.70;86.40;;;;;;5036091;28;20083;-72
2022/11/03 08:08:29;;;;;;;14.15;7.60;;;16.70;86.40;;;;;;5042898;28;20049;-71
2022/11/03 08:10:55;;;;;;;11.75;7.28;;;16.70;86.40;;;;;;5032602;28;20101;-71
2022/11/03 08:13:20;;;;;;;21.58;8.68;;;16.70;86.30;;;;;;5032873;28;20021;-72
2022/11/03 08:15:46;;;;;;;21.00;8.32;;;16.60;86.30;;;;;;5035007;28;20407;-72
2022/11/03 08:18:12;;;;;;;15.60;8.18;;;16.60;86.30;;;;;;5052643;28;20045;-71
2022/11/03 08:20:37;;;;;;;17.75;7.78;;;16.70;86.30;;;;;;5052546;28;20025;-71
2022/11/03 08:23:03;;;;;;;18.10;7.60;;;16.70;86.30;;;;;;5053919;28;20368;-72
2022/11/03 08:25:29;;;;;;;18.80;7.80;;;16.60;86.20;;;;;;5053896;28;20545;-71
2022/11/03 08:27:54;;;;;;;18.35;7.70;;;16.60;86.20;;;;;;5052471;28;20025;-72
2022/11/03 08:30:20;;;;;;;15.82;7.47;;;16.60;86.20;;;;;;5052566;28;20032;-72
2022/11/03 08:32:45;;;;;;;21.83;8.50;;;16.60;86.20;;;;;;5052868;28;20021;-72
2022/11/03 08:35:11;;;;;;;13.43;7.47;;;16.60;86.20;;;;;;5032628;28;20033;-71
2022/11/03 08:37:37;;;;;;;16.17;7.03;;;16.60;86.20;;;;;;5033647;28;20488;-72
2022/11/03 08:40:03;;;;;;;13.43;7.18;;;16.60;86.20;;;;;;5033598;28;20057;-71
2022/11/03 08:42:28;;;;;;;9.45;7.00;;;16.60;86.20;;;;;;5032558;28;20025;-71
2022/11/03 08:44:54;;;;;;;19.33;7.35;;;16.60;86.20;;;;;;5032039;28;20095;-72
2022/11/03 08:47:20;;;;;;;14.95;6.88;;;16.60;86.10;;;;;;5032397;28;20537;-71
2022/11/03 08:49:46;;;;;;;18.63;7.28;;;16.60;86.10;;;;;;5033469;28;20022;-72
2022/11/03 08:52:11;;;;;;;13.98;7.00;;;16.60;86.10;;;;;;5033374;28;20025;-71
2022/11/03 08:54:37;;;;;;;15.65;7.20;;;16.60;86.00;;;;;;5033458;28;20086;-72
2022/11/03 08:57:02;;;;;;;13.20;7.18;;;16.60;86.00;;;;;;5031760;28;20052;-72
2022/11/03 08:59:28;;;;;;;15.07;6.93;;;16.60;86.00;;;;;;5033302;28;20128;-71
2022/11/03 09:01:56;;;;;;;13.65;7.07;;;16.60;86.00;;;;;;5033010;28;20040;-72
2022/11/03 09:04:21;;;;;;;15.57;7.05;;;16.60;86.00;;;;;;5033248;28;20024;-72
2022/11/03 09:06:47;;;;;;;10.65;6.18;;;16.60;86.00;;;;;;5032968;28;20026;-71
2022/11/03 09:09:13;;;;;;;12.15;6.95;;;16.50;85.90;;;;;;5052453;28;20113;-72
2022/11/03 09:11:38;;;;;;;12.95;6.65;;;16.50;86.00;;;;;;5051945;28;20835;-72
2022/11/03 09:14:04;;;;;;;13.80;6.10;;;16.50;85.90;;;;;;5052579;28;20029;-71
2022/11/03 09:16:30;;;;;;;13.32;6.22;;;16.60;85.90;;;;;;5053092;28;20091;-71
2022/11/03 09:18:55;;;;;;;13.02;5.80;;;16.50;85.80;;;;;;5051586;28;20037;-71
2022/11/03 09:21:21;;;;;;;12.05;5.78;;;16.50;85.70;;;;;;5052637;28;20483;-72
2022/11/03 09:23:47;;;;;;;15.75;6.45;;;16.50;85.80;;;;;;5051506;28;20024;-71
2022/11/03 09:26:12;;;;;;;16.90;6.03;;;16.50;85.80;;;;;;5051538;28;20013;-71
2022/11/03 09:28:38;;;;;;;12.43;5.82;;;16.50;86.10;;;;;;5034711;28;20479;-72
2022/11/03 09:31:04;;;;;;;12.40;5.72;;;16.50;85.70;;;;;;5052688;28;20498;-72
2022/11/03 09:33:29;;;;;;;12.00;5.50;;;16.50;85.70;;;;;;5052472;28;20022;-71
2022/11/03 09:35:55;;;;;;;11.57;5.90;;;16.50;85.60;;;;;;5051381;28;20114;-71
2022/11/03 09:38:20;;;;;;;13.43;6.00;;;16.50;85.70;;;;;;5051386;28;20060;-72
2022/11/03 09:40:46;;;;;;;14.65;5.47;;;16.50;86.60;;;;;;5051391;28;20059;-71
2022/11/03 09:43:12;;;;;;;15.75;5.10;;;16.50;85.70;;;;;;5034440;28;20032;-72
2022/11/03 09:45:38;;;;;;;9.38;5.22;;;16.50;85.60;;;;;;5037917;28;20498;-72
2022/11/03 09:48:04;;;;;;;13.07;5.53;;;16.50;85.70;;;;;;5032184;28;20036;-72
2022/11/03 09:50:29;;;;;;;10.55;5.10;;;16.50;85.50;;;;;;5031381;28;20018;-72
2022/11/03 09:52:55;;;;;;;12.55;5.43;;;16.50;85.60;;;;;;5031086;28;20052;-72
2022/11/03 09:55:24;;;;;;;11.27;5.30;;;16.50;85.50;;;;;;5031097;28;20495;-72
2022/11/03 09:57:51;;;;;;;13.65;5.25;;;16.40;85.50;;;;;;5031024;28;20108;-71
2022/11/03 10:00:19;;;;;;;13.70;5.75;;;16.50;85.50;;;;;;5030804;28;20026;-71
2022/11/03 10:02:44;;;;;;;10.55;5.07;;;16.50;85.50;;;;;;5031237;28;20064;-72
2022/11/03 10:05:21;;;;;;;11.63;5.45;;;16.40;85.50;;;;;;5031064;28;20049;-72
2022/11/03 10:07:47;;;;;;;13.38;5.22;;;16.50;85.50;;;;;;5039919;28;20024;-71
2022/11/03 10:10:16;;;;;;;9.32;5.05;;;16.40;86.40;;;;;;5050932;28;20021;-71
2022/11/03 10:12:41;;;;;;;10.05;5.25;;;16.40;86.30;;;;;;5034470;28;20027;-71
2022/11/03 10:15:15;;;;;;;9.05;4.47;;;16.50;85.50;;;;;;5034309;28;20025;-72
2022/11/03 10:17:41;;;;;;;9.75;4.75;;;16.50;85.40;;;;;;5050836;28;20032;-71
2022/11/03 10:20:11;;;;;;;7.95;4.68;;;16.40;85.40;;;;;;5050722;28;20108;-72
2022/11/03 10:22:37;;;;;;;10.50;4.85;;;16.40;85.40;;;;;;5034225;28;20207;-72
2022/11/03 10:25:40;;;;;;;10.63;4.65;;;16.40;85.40;;;;;;5050760;28;20095;-71
2022/11/03 10:28:23;;;;;;;7.57;4.82;;;16.40;85.40;;;;;;5050596;28;20021;-71
2022/11/03 10:30:50;;;;;;;10.55;5.10;;;16.40;85.50;;;;;;5050784;28;20013;-72
2022/11/03 10:33:29;;;;;;;11.20;5.32;;;16.40;85.50;;;;;;5034402;28;20104;-71
2022/11/03 10:35:56;;;;;;;11.02;5.03;;;16.40;85.50;;;;;;5051701;28;20066;-71
2022/11/03 10:38:35;;;;;;;7.88;4.53;;;16.40;85.50;;;;;;5050630;28;20025;-72
2022/11/03 10:41:16;;;;;;;10.57;4.55;;;16.40;85.50;;;;;;5033867;28;20021;-72
2022/11/03 10:44:01;;;;;;;11.05;4.35;;;16.40;85.50;;;;;;5051971;28;20087;-72
2022/11/03 10:46:26;;;;;;;9.35;4.50;;;16.40;85.50;;;;;;5030879;28;20030;-71
2022/11/03 10:49:13;;;;;;;12.00;4.72;;;16.40;85.50;;;;;;5031855;28;20157;-71
2022/11/03 10:51:40;;;;;;;16.73;4.85;;;16.40;85.50;;;;;;5030773;28;20026;-71
2022/11/03 10:54:11;;;;;;;14.10;5.03;;;16.40;85.50;;;;;;5030529;28;20025;-71
2022/11/03 10:56:37;;;;;;;10.07;4.50;;;16.40;85.50;;;;;;5030241;28;20037;-72
2022/11/03 10:59:03;;;;;;;10.18;4.35;;;16.40;85.50;;;;;;5030614;28;20036;-72
2022/11/03 11:01:28;;;;;;;15.48;4.75;;;16.30;85.50;;;;;;5030501;28;20033;-71
2022/11/03 11:03:54;;;;;;;9.88;4.47;;;16.40;85.50;;;;;;5031659;28;20049;-72
2022/11/03 11:06:24;;;;;;;9.15;4.43;;;16.40;85.50;;;;;;5014121;28;20068;-72
2022/11/03 11:08:56;;;;;;;10.88;4.60;;;16.30;85.50;;;;;;5027224;28;20025;-71
2022/11/03 11:11:22;;;;;;;10.95;4.60;;;16.30;85.50;;;;;;5031543;28;20025;-72
2022/11/03 11:14:22;;;;;;;9.32;3.97;;;16.30;85.50;;;;;;5034138;28;20478;-72
2022/11/03 11:16:52;;;;;;;8.00;4.13;;;16.30;85.50;;;;;;5035185;28;20052;-71
2022/11/03 11:19:18;;;;;;;10.13;4.32;;;16.30;85.50;;;;;;5033889;28;20061;-72
2022/11/03 11:21:46;;;;;;;15.15;4.78;;;16.30;85.50;;;;;;5034060;28;20022;-71
2022/11/03 11:24:12;;;;;;;8.90;4.00;;;16.30;85.50;;;;;;5035048;28;20026;-71
2022/11/03 11:26:38;;;;;;;10.02;4.07;;;16.30;85.60;;;;;;5033913;28;20027;-71
2022/11/03 11:29:07;;;;;;;7.20;3.85;;;16.30;85.50;;;;;;5033962;28;20025;-71
2022/11/03 11:31:39;;;;;;;13.18;4.32;;;16.30;85.60;;;;;;5034703;28;20080;-71
2022/11/03 11:34:08;;;;;;;10.15;4.55;;;16.30;85.40;;;;;;5034651;28;20021;-72
2022/11/03 11:36:34;;;;;;;8.20;3.60;;;16.30;85.60;;;;;;5034889;28;20032;-72
2022/11/03 11:39:00;;;;;;;11.07;3.85;;;16.30;85.50;;;;;;5033687;28;20032;-72
2022/11/03 11:42:04;;;;;;;7.78;4.18;;;16.30;85.50;;;;;;5034732;28;20021;-72
2022/11/03 11:44:38;;;;;;;9.18;4.20;;;16.30;85.60;;;;;;5034353;28;20022;-71
2022/11/03 11:47:26;;;;;;;10.75;4.07;;;16.30;85.70;;;;;;5034933;28;20456;-72
2022/11/03 11:50:08;;;;;;;8.52;3.67;;;16.30;85.50;;;;;;5034768;28;20093;-71
2022/11/03 11:52:57;;;;;;;9.80;4.35;;;16.30;85.70;;;;;;5034633;28;20499;-72
2022/11/03 11:55:44;;;;;;;9.85;4.50;;;16.30;85.70;;;;;;5032732;28;20458;-71
2022/11/03 11:58:18;;;;;;;8.05;4.05;;;16.30;85.70;;;;;;5033277;28;20042;-72
2022/11/03 12:01:27;;;;;;;9.27;4.03;;;16.30;85.80;;;;;;5033333;28;20105;-72
2022/11/03 12:04:00;;;;;;;11.90;4.57;;;16.30;85.60;;;;;;5052248;28;20097;-71
2022/11/03 12:06:36;;;;;;;7.65;4.25;;;16.30;85.70;;;;;;5019792;28;20127;-71
2022/11/03 12:09:06;;;;;;;7.45;3.45;;;16.30;85.80;;;;;;5053231;28;20075;-71
2022/11/03 12:11:48;;;;;;;7.28;3.80;;;16.30;85.80;;;;;;5038773;28;20017;-72
2022/11/03 12:14:23;;;;;;;10.43;4.53;;;16.30;85.70;;;;;;5038792;28;20036;-71
2022/11/03 12:16:49;;;;;;;9.20;3.65;;;16.30;85.60;;;;;;5071984;28;20085;-72
2022/11/03 12:19:37;;;;;;;8.30;3.55;;;16.30;85.70;;;;;;5038499;28;20499;-72
2022/11/03 12:22:09;;;;;;;6.90;3.42;;;16.30;85.70;;;;;;5071583;28;20037;-72
2022/11/03 12:24:37;;;;;;;7.28;3.13;;;16.30;85.80;;;;;;5054868;28;20024;-72
2022/11/03 12:27:15;;;;;;;10.65;4.30;;;16.30;85.80;;;;;;5055250;28;20074;-72
2022/11/03 12:29:41;;;;;;;5.57;3.30;;;16.30;85.80;;;;;;5055048;28;20034;-72
2022/11/03 12:32:06;;;;;;;7.65;3.63;;;16.30;85.80;;;;;;5071575;28;20464;-71
2022/11/03 12:34:32;;;;;;;11.60;3.55;;;16.30;85.80;;;;;;5054968;28;20044;-72
2022/11/03 12:36:57;;;;;;;6.03;3.60;;;16.30;85.80;;;;;;5071582;28;20029;-71
2022/11/03 12:39:23;;;;;;;8.77;3.60;;;16.30;85.80;;;;;;5069467;28;20040;-72
2022/11/03 12:41:49;;;;;;;7.63;3.50;;;16.30;85.70;;;;;;5053648;28;20119;-71
2022/11/03 12:44:14;;;;;;;10.27;3.47;;;16.30;85.80;;;;;;5051204;28;20020;-72
2022/11/03 12:46:40;;;;;;;7.10;3.42;;;16.30;85.80;;;;;;5033618;28;20026;-72
2022/11/03 12:49:06;;;;;;;10.57;3.67;;;16.30;85.80;;;;;;5032328;28;20028;-72
2022/11/03 12:51:31;;;;;;;9.82;3.38;;;16.30;85.90;;;;;;5033121;28;20032;-71
2022/11/03 12:53:57;;;;;;;9.18;3.30;;;16.30;85.80;;;;;;5032528;28;20034;-72
2022/11/03 12:56:22;;;;;;;5.68;3.00;;;16.30;85.90;;;;;;5033151;28;20045;-71
2022/11/03 12:58:48;;;;;;;8.95;3.88;;;16.30;85.90;;;;;;5032047;28;20099;-72
2022/11/03 13:01:14;;;;;;;8.23;3.40;;;16.30;85.90;;;;;;5032111;28;20025;-71
2022/11/03 13:03:39;;;;;;;9.80;3.47;;;16.30;85.90;;;;;;5031973;28;20030;-72